sensor_id;sensor_type;location;lat;lon;timestamp;P1;durP1;ratioP1;P2;durP2;ratioP2
67768;SDS011;54569;52.018;5.584;2022-10-16T00:01:58;6.63;;;2.35;;
67768;SDS011;54569;52.018;5.584;2022-10-16T00:04:24;4.90;;;2.58;;
67768;SDS011;54569;52.018;5.584;2022-10-16T00:06:50;4.28;;;2.40;;
67768;SDS011;54569;52.018;5.584;2022-10-16T00:09:15;3.55;;;2.40;;
67768;SDS011;54569;52.018;5.584;2022-10-16T00:11:41;3.72;;;2.38;;
67768;SDS011;54569;52.018;5.584;2022-10-16T00:14:09;5.20;;;2.10;;
67768;SDS011;54569;52.018;5.584;2022-10-16T00:16:37;3.50;;;2.03;;
67768;SDS011;54569;52.018;5.584;2022-10-16T00:19:03;3.83;;;2.30;;
67768;SDS011;54569;52.018;5.584;2022-10-16T00:21:29;3.45;;;2.10;;
67768;SDS011;54569;52.018;5.584;2022-10-16T00:23:57;5.47;;;2.30;;
67768;SDS011;54569;52.018;5.584;2022-10-16T00:26:24;3.13;;;2.20;;
67768;SDS011;54569;52.018;5.584;2022-10-16T00:28:53;3.13;;;2.28;;
67768;SDS011;54569;52.018;5.584;2022-10-16T00:31:20;3.78;;;2.05;;
67768;SDS011;54569;52.018;5.584;2022-10-16T00:33:46;3.40;;;1.95;;
67768;SDS011;54569;52.018;5.584;2022-10-16T00:36:14;2.42;;;1.85;;
67768;SDS011;54569;52.018;5.584;2022-10-16T00:38:41;2.65;;;2.10;;
67768;SDS011;54569;52.018;5.584;2022-10-16T00:41:09;4.72;;;2.42;;
67768;SDS011;54569;52.018;5.584;2022-10-16T00:46:12;4.07;;;2.20;;
67768;SDS011;54569;52.018;5.584;2022-10-16T00:49:03;4.38;;;2.08;;
67768;SDS011;54569;52.018;5.584;2022-10-16T00:51:32;5.35;;;1.95;;
67768;SDS011;54569;52.018;5.584;2022-10-16T00:54:04;3.60;;;2.40;;
67768;SDS011;54569;52.018;5.584;2022-10-16T00:56:36;2.13;;;2.00;;
67768;SDS011;54569;52.018;5.584;2022-10-16T00:59:07;3.80;;;2.20;;
67768;SDS011;54569;52.018;5.584;2022-10-16T01:01:40;3.70;;;2.17;;
67768;SDS011;54569;52.018;5.584;2022-10-16T01:04:05;2.42;;;1.90;;
67768;SDS011;54569;52.018;5.584;2022-10-16T01:09:21;4.18;;;2.42;;
67768;SDS011;54569;52.018;5.584;2022-10-16T01:12:06;2.80;;;2.03;;
67768;SDS011;54569;52.018;5.584;2022-10-16T01:14:45;5.05;;;2.10;;
67768;SDS011;54569;52.018;5.584;2022-10-16T01:17:20;3.15;;;1.92;;
67768;SDS011;54569;52.018;5.584;2022-10-16T01:19:53;5.28;;;2.20;;
67768;SDS011;54569;52.018;5.584;2022-10-16T01:31:03;5.82;;;2.00;;
67768;SDS011;54569;52.018;5.584;2022-10-16T01:33:38;2.50;;;2.17;;
67768;SDS011;54569;52.018;5.584;2022-10-16T01:36:13;2.63;;;2.10;;
67768;SDS011;54569;52.018;5.584;2022-10-16T01:38:49;5.63;;;2.38;;
67768;SDS011;54569;52.018;5.584;2022-10-16T01:43:52;3.28;;;2.15;;
67768;SDS011;54569;52.018;5.584;2022-10-16T01:46:39;3.47;;;2.47;;
67768;SDS011;54569;52.018;5.584;2022-10-16T01:49:06;5.47;;;2.30;;
67768;SDS011;54569;52.018;5.584;2022-10-16T01:51:35;3.33;;;2.17;;
67768;SDS011;54569;52.018;5.584;2022-10-16T01:54:02;3.53;;;2.40;;
67768;SDS011;54569;52.018;5.584;2022-10-16T01:56:31;3.00;;;2.20;;
67768;SDS011;54569;52.018;5.584;2022-10-16T02:01:27;4.85;;;2.47;;
67768;SDS011;54569;52.018;5.584;2022-10-16T02:03:57;3.33;;;2.67;;
67768;SDS011;54569;52.018;5.584;2022-10-16T02:06:26;3.63;;;2.17;;
67768;SDS011;54569;52.018;5.584;2022-10-16T02:08:53;3.53;;;2.58;;
67768;SDS011;54569;52.018;5.584;2022-10-16T02:11:18;3.22;;;2.38;;
67768;SDS011;54569;52.018;5.584;2022-10-16T02:13:55;4.63;;;2.70;;
67768;SDS011;54569;52.018;5.584;2022-10-16T02:16:40;3.50;;;2.50;;
67768;SDS011;54569;52.018;5.584;2022-10-16T02:19:11;3.85;;;2.33;;
67768;SDS011;54569;52.018;5.584;2022-10-16T02:29:38;2.88;;;2.67;;
67768;SDS011;54569;52.018;5.584;2022-10-16T02:32:10;5.15;;;2.47;;
67768;SDS011;54569;52.018;5.584;2022-10-16T02:34:37;3.10;;;2.63;;
67768;SDS011;54569;52.018;5.584;2022-10-16T02:37:04;4.07;;;2.40;;
67768;SDS011;54569;52.018;5.584;2022-10-16T02:39:32;2.70;;;2.50;;
67768;SDS011;54569;52.018;5.584;2022-10-16T02:41:58;2.65;;;2.45;;
67768;SDS011;54569;52.018;5.584;2022-10-16T02:44:24;3.58;;;1.95;;
67768;SDS011;54569;52.018;5.584;2022-10-16T02:46:50;2.70;;;2.33;;
67768;SDS011;54569;52.018;5.584;2022-10-16T02:49:15;2.45;;;2.25;;
67768;SDS011;54569;52.018;5.584;2022-10-16T02:51:41;3.65;;;1.90;;
67768;SDS011;54569;52.018;5.584;2022-10-16T02:54:07;8.05;;;2.60;;
67768;SDS011;54569;52.018;5.584;2022-10-16T02:56:32;2.40;;;2.20;;
67768;SDS011;54569;52.018;5.584;2022-10-16T02:58:58;4.82;;;2.67;;
67768;SDS011;54569;52.018;5.584;2022-10-16T03:01:24;3.13;;;2.22;;
67768;SDS011;54569;52.018;5.584;2022-10-16T03:03:50;6.07;;;2.60;;
67768;SDS011;54569;52.018;5.584;2022-10-16T03:06:15;3.10;;;2.03;;
67768;SDS011;54569;52.018;5.584;2022-10-16T03:08:41;6.43;;;2.75;;
67768;SDS011;54569;52.018;5.584;2022-10-16T03:11:07;2.92;;;2.05;;
67768;SDS011;54569;52.018;5.584;2022-10-16T03:13:32;4.30;;;2.22;;
67768;SDS011;54569;52.018;5.584;2022-10-16T03:15:58;2.67;;;2.38;;
67768;SDS011;54569;52.018;5.584;2022-10-16T03:18:24;3.78;;;2.13;;
67768;SDS011;54569;52.018;5.584;2022-10-16T03:20:49;3.40;;;2.00;;
67768;SDS011;54569;52.018;5.584;2022-10-16T03:23:15;2.47;;;2.28;;
67768;SDS011;54569;52.018;5.584;2022-10-16T03:25:40;4.82;;;2.20;;
67768;SDS011;54569;52.018;5.584;2022-10-16T03:28:06;2.88;;;1.98;;
67768;SDS011;54569;52.018;5.584;2022-10-16T03:30:32;2.83;;;2.13;;
67768;SDS011;54569;52.018;5.584;2022-10-16T03:32:57;3.80;;;2.08;;
67768;SDS011;54569;52.018;5.584;2022-10-16T03:35:23;2.90;;;2.17;;
67768;SDS011;54569;52.018;5.584;2022-10-16T03:37:49;4.38;;;2.20;;
67768;SDS011;54569;52.018;5.584;2022-10-16T03:40:16;3.08;;;2.53;;
67768;SDS011;54569;52.018;5.584;2022-10-16T03:42:42;5.53;;;2.13;;
67768;SDS011;54569;52.018;5.584;2022-10-16T03:45:08;2.83;;;2.30;;
67768;SDS011;54569;52.018;5.584;2022-10-16T03:47:35;4.03;;;2.08;;
67768;SDS011;54569;52.018;5.584;2022-10-16T03:50:01;2.55;;;1.80;;
67768;SDS011;54569;52.018;5.584;2022-10-16T03:52:28;1.98;;;1.88;;
67768;SDS011;54569;52.018;5.584;2022-10-16T03:54:53;3.83;;;2.10;;
67768;SDS011;54569;52.018;5.584;2022-10-16T03:57:19;4.82;;;2.20;;
67768;SDS011;54569;52.018;5.584;2022-10-16T03:59:45;3.35;;;2.13;;
67768;SDS011;54569;52.018;5.584;2022-10-16T04:02:11;3.88;;;2.00;;
67768;SDS011;54569;52.018;5.584;2022-10-16T04:04:37;2.00;;;1.80;;
67768;SDS011;54569;52.018;5.584;2022-10-16T04:07:03;2.67;;;2.10;;
67768;SDS011;54569;52.018;5.584;2022-10-16T04:09:29;2.58;;;1.83;;
67768;SDS011;54569;52.018;5.584;2022-10-16T04:11:54;2.17;;;1.98;;
67768;SDS011;54569;52.018;5.584;2022-10-16T04:14:20;5.15;;;1.58;;
67768;SDS011;54569;52.018;5.584;2022-10-16T04:16:46;2.40;;;2.08;;
67768;SDS011;54569;52.018;5.584;2022-10-16T04:19:11;2.90;;;1.98;;
67768;SDS011;54569;52.018;5.584;2022-10-16T04:21:37;4.53;;;1.88;;
67768;SDS011;54569;52.018;5.584;2022-10-16T04:24:03;1.77;;;1.67;;
67768;SDS011;54569;52.018;5.584;2022-10-16T04:26:28;1.95;;;1.80;;
67768;SDS011;54569;52.018;5.584;2022-10-16T04:28:54;1.83;;;1.73;;
67768;SDS011;54569;52.018;5.584;2022-10-16T04:31:20;3.35;;;1.90;;
67768;SDS011;54569;52.018;5.584;2022-10-16T04:33:46;2.30;;;2.10;;
67768;SDS011;54569;52.018;5.584;2022-10-16T04:36:11;1.83;;;1.73;;
67768;SDS011;54569;52.018;5.584;2022-10-16T04:38:37;2.58;;;1.80;;
67768;SDS011;54569;52.018;5.584;2022-10-16T04:41:04;3.65;;;1.77;;
67768;SDS011;54569;52.018;5.584;2022-10-16T04:43:31;1.98;;;1.60;;
67768;SDS011;54569;52.018;5.584;2022-10-16T04:45:57;2.70;;;1.80;;
67768;SDS011;54569;52.018;5.584;2022-10-16T04:48:23;2.58;;;1.90;;
67768;SDS011;54569;52.018;5.584;2022-10-16T04:50:48;2.90;;;1.75;;
67768;SDS011;54569;52.018;5.584;2022-10-16T04:53:14;1.73;;;1.63;;
67768;SDS011;54569;52.018;5.584;2022-10-16T04:55:41;5.20;;;2.00;;
67768;SDS011;54569;52.018;5.584;2022-10-16T04:58:07;2.97;;;1.63;;
67768;SDS011;54569;52.018;5.584;2022-10-16T05:00:33;5.15;;;1.95;;
67768;SDS011;54569;52.018;5.584;2022-10-16T05:02:59;2.53;;;1.90;;
67768;SDS011;54569;52.018;5.584;2022-10-16T05:05:25;1.95;;;1.70;;
67768;SDS011;54569;52.018;5.584;2022-10-16T05:07:51;2.08;;;1.98;;
67768;SDS011;54569;52.018;5.584;2022-10-16T05:10:17;4.97;;;2.13;;
67768;SDS011;54569;52.018;5.584;2022-10-16T05:12:43;1.58;;;1.48;;
67768;SDS011;54569;52.018;5.584;2022-10-16T05:15:09;3.45;;;1.85;;
67768;SDS011;54569;52.018;5.584;2022-10-16T05:17:35;2.03;;;1.88;;
67768;SDS011;54569;52.018;5.584;2022-10-16T05:20:01;3.55;;;1.70;;
67768;SDS011;54569;52.018;5.584;2022-10-16T05:22:27;2.40;;;2.17;;
67768;SDS011;54569;52.018;5.584;2022-10-16T05:24:52;2.00;;;1.90;;
67768;SDS011;54569;52.018;5.584;2022-10-16T05:27:18;5.50;;;2.00;;
67768;SDS011;54569;52.018;5.584;2022-10-16T05:29:47;2.88;;;1.88;;
67768;SDS011;54569;52.018;5.584;2022-10-16T05:32:17;3.15;;;1.90;;
67768;SDS011;54569;52.018;5.584;2022-10-16T05:34:44;2.08;;;1.88;;
67768;SDS011;54569;52.018;5.584;2022-10-16T05:37:10;2.40;;;1.85;;
67768;SDS011;54569;52.018;5.584;2022-10-16T05:39:36;4.63;;;2.20;;
67768;SDS011;54569;52.018;5.584;2022-10-16T05:42:03;2.58;;;1.73;;
67768;SDS011;54569;52.018;5.584;2022-10-16T05:44:29;3.67;;;1.70;;
67768;SDS011;54569;52.018;5.584;2022-10-16T05:46:55;4.18;;;1.98;;
67768;SDS011;54569;52.018;5.584;2022-10-16T05:49:21;2.80;;;2.28;;
67768;SDS011;54569;52.018;5.584;2022-10-16T05:51:46;4.20;;;2.10;;
67768;SDS011;54569;52.018;5.584;2022-10-16T05:54:12;4.38;;;2.05;;
67768;SDS011;54569;52.018;5.584;2022-10-16T05:56:38;2.53;;;2.10;;
67768;SDS011;54569;52.018;5.584;2022-10-16T05:59:04;4.40;;;1.98;;
67768;SDS011;54569;52.018;5.584;2022-10-16T06:01:29;2.72;;;1.92;;
67768;SDS011;54569;52.018;5.584;2022-10-16T06:03:56;3.10;;;2.47;;
67768;SDS011;54569;52.018;5.584;2022-10-16T06:06:24;5.10;;;2.05;;
67768;SDS011;54569;52.018;5.584;2022-10-16T06:08:51;2.10;;;1.65;;
67768;SDS011;54569;52.018;5.584;2022-10-16T06:11:19;3.95;;;2.10;;
67768;SDS011;54569;52.018;5.584;2022-10-16T06:13:55;2.88;;;2.00;;
67768;SDS011;54569;52.018;5.584;2022-10-16T06:18:50;2.40;;;2.00;;
67768;SDS011;54569;52.018;5.584;2022-10-16T06:21:17;2.67;;;2.00;;
67768;SDS011;54569;52.018;5.584;2022-10-16T06:23:45;2.60;;;2.08;;
67768;SDS011;54569;52.018;5.584;2022-10-16T06:26:15;2.97;;;1.80;;
67768;SDS011;54569;52.018;5.584;2022-10-16T06:28:42;5.78;;;2.05;;
67768;SDS011;54569;52.018;5.584;2022-10-16T06:31:11;2.53;;;1.90;;
67768;SDS011;54569;52.018;5.584;2022-10-16T06:33:49;3.72;;;2.20;;
67768;SDS011;54569;52.018;5.584;2022-10-16T06:36:16;3.63;;;1.90;;
67768;SDS011;54569;52.018;5.584;2022-10-16T06:38:42;3.90;;;1.95;;
67768;SDS011;54569;52.018;5.584;2022-10-16T06:41:12;1.98;;;1.80;;
67768;SDS011;54569;52.018;5.584;2022-10-16T06:43:42;2.35;;;2.00;;
67768;SDS011;54569;52.018;5.584;2022-10-16T06:46:10;4.22;;;1.90;;
67768;SDS011;54569;52.018;5.584;2022-10-16T06:48:38;4.13;;;1.90;;
67768;SDS011;54569;52.018;5.584;2022-10-16T06:51:05;2.13;;;1.60;;
67768;SDS011;54569;52.018;5.584;2022-10-16T06:53:34;1.77;;;1.65;;
67768;SDS011;54569;52.018;5.584;2022-10-16T06:58:33;4.53;;;2.05;;
67768;SDS011;54569;52.018;5.584;2022-10-16T07:00:59;3.25;;;1.88;;
67768;SDS011;54569;52.018;5.584;2022-10-16T07:03:24;2.15;;;1.55;;
67768;SDS011;54569;52.018;5.584;2022-10-16T07:05:50;2.22;;;1.73;;
67768;SDS011;54569;52.018;5.584;2022-10-16T07:08:16;4.18;;;1.90;;
67768;SDS011;54569;52.018;5.584;2022-10-16T07:10:41;3.80;;;1.67;;
67768;SDS011;54569;52.018;5.584;2022-10-16T07:13:07;3.50;;;1.90;;
67768;SDS011;54569;52.018;5.584;2022-10-16T07:15:33;3.70;;;2.05;;
67768;SDS011;54569;52.018;5.584;2022-10-16T07:17:59;2.17;;;1.70;;
67768;SDS011;54569;52.018;5.584;2022-10-16T07:20:25;5.53;;;1.98;;
67768;SDS011;54569;52.018;5.584;2022-10-16T07:22:50;1.90;;;1.67;;
67768;SDS011;54569;52.018;5.584;2022-10-16T07:25:17;3.78;;;1.60;;
67768;SDS011;54569;52.018;5.584;2022-10-16T07:27:43;4.22;;;1.95;;
67768;SDS011;54569;52.018;5.584;2022-10-16T07:30:09;2.85;;;1.70;;
67768;SDS011;54569;52.018;5.584;2022-10-16T07:32:35;3.15;;;1.85;;
67768;SDS011;54569;52.018;5.584;2022-10-16T07:35:00;3.45;;;1.88;;
67768;SDS011;54569;52.018;5.584;2022-10-16T07:37:26;2.25;;;1.88;;
67768;SDS011;54569;52.018;5.584;2022-10-16T07:39:51;3.20;;;1.75;;
67768;SDS011;54569;52.018;5.584;2022-10-16T07:42:17;4.07;;;1.70;;
67768;SDS011;54569;52.018;5.584;2022-10-16T07:44:43;4.10;;;1.90;;
67768;SDS011;54569;52.018;5.584;2022-10-16T07:47:08;2.40;;;1.67;;
67768;SDS011;54569;52.018;5.584;2022-10-16T07:49:34;2.90;;;2.08;;
67768;SDS011;54569;52.018;5.584;2022-10-16T07:52:00;4.85;;;2.03;;
67768;SDS011;54569;52.018;5.584;2022-10-16T07:54:27;3.10;;;1.85;;
67768;SDS011;54569;52.018;5.584;2022-10-16T07:56:54;2.85;;;2.00;;
67768;SDS011;54569;52.018;5.584;2022-10-16T07:59:20;3.25;;;1.92;;
67768;SDS011;54569;52.018;5.584;2022-10-16T08:01:45;2.78;;;1.75;;
67768;SDS011;54569;52.018;5.584;2022-10-16T08:04:11;2.28;;;1.88;;
67768;SDS011;54569;52.018;5.584;2022-10-16T08:06:37;3.22;;;2.28;;
67768;SDS011;54569;52.018;5.584;2022-10-16T08:09:05;5.60;;;2.00;;
67768;SDS011;54569;52.018;5.584;2022-10-16T08:11:31;2.88;;;1.60;;
67768;SDS011;54569;52.018;5.584;2022-10-16T08:13:57;2.85;;;2.03;;
67768;SDS011;54569;52.018;5.584;2022-10-16T08:16:23;3.42;;;1.88;;
67768;SDS011;54569;52.018;5.584;2022-10-16T08:18:48;2.53;;;1.90;;
67768;SDS011;54569;52.018;5.584;2022-10-16T08:21:16;5.55;;;1.90;;
67768;SDS011;54569;52.018;5.584;2022-10-16T08:23:43;2.13;;;1.67;;
67768;SDS011;54569;52.018;5.584;2022-10-16T08:26:10;4.38;;;2.00;;
67768;SDS011;54569;52.018;5.584;2022-10-16T08:28:36;4.47;;;1.65;;
67768;SDS011;54569;52.018;5.584;2022-10-16T08:31:08;3.58;;;1.85;;
67768;SDS011;54569;52.018;5.584;2022-10-16T08:33:36;4.82;;;1.80;;
67768;SDS011;54569;52.018;5.584;2022-10-16T08:36:03;2.25;;;1.45;;
67768;SDS011;54569;52.018;5.584;2022-10-16T08:38:30;3.00;;;1.95;;
67768;SDS011;54569;52.018;5.584;2022-10-16T08:40:57;3.15;;;1.77;;
67768;SDS011;54569;52.018;5.584;2022-10-16T08:43:54;3.42;;;1.98;;
67768;SDS011;54569;52.018;5.584;2022-10-16T08:49:36;2.63;;;1.65;;
67768;SDS011;54569;52.018;5.584;2022-10-16T08:52:02;3.03;;;1.63;;
67768;SDS011;54569;52.018;5.584;2022-10-16T08:54:35;2.40;;;1.60;;
67768;SDS011;54569;52.018;5.584;2022-10-16T08:57:13;5.88;;;1.45;;
67768;SDS011;54569;52.018;5.584;2022-10-16T08:59:43;4.93;;;1.90;;
67768;SDS011;54569;52.018;5.584;2022-10-16T09:05:08;3.17;;;1.40;;
67768;SDS011;54569;52.018;5.584;2022-10-16T09:15:53;5.57;;;1.98;;
67768;SDS011;54569;52.018;5.584;2022-10-16T09:18:48;3.03;;;1.80;;
67768;SDS011;54569;52.018;5.584;2022-10-16T09:21:32;4.20;;;1.45;;
67768;SDS011;54569;52.018;5.584;2022-10-16T09:24:10;2.92;;;1.35;;
67768;SDS011;54569;52.018;5.584;2022-10-16T09:26:39;5.03;;;1.65;;
67768;SDS011;54569;52.018;5.584;2022-10-16T09:29:05;3.15;;;1.42;;
67768;SDS011;54569;52.018;5.584;2022-10-16T09:31:30;3.40;;;1.48;;
67768;SDS011;54569;52.018;5.584;2022-10-16T09:34:00;6.72;;;1.85;;
67768;SDS011;54569;52.018;5.584;2022-10-16T09:36:33;3.28;;;1.70;;
67768;SDS011;54569;52.018;5.584;2022-10-16T09:41:33;2.88;;;1.77;;
67768;SDS011;54569;52.018;5.584;2022-10-16T09:44:02;5.95;;;2.55;;
67768;SDS011;54569;52.018;5.584;2022-10-16T09:46:34;4.60;;;2.47;;
67768;SDS011;54569;52.018;5.584;2022-10-16T09:49:17;7.95;;;3.95;;
67768;SDS011;54569;52.018;5.584;2022-10-16T09:51:48;4.28;;;2.00;;
67768;SDS011;54569;52.018;5.584;2022-10-16T09:54:16;5.85;;;2.03;;
67768;SDS011;54569;52.018;5.584;2022-10-16T09:56:44;5.00;;;1.50;;
67768;SDS011;54569;52.018;5.584;2022-10-16T10:01:49;6.32;;;2.03;;
67768;SDS011;54569;52.018;5.584;2022-10-16T10:04:17;5.10;;;2.00;;
67768;SDS011;54569;52.018;5.584;2022-10-16T10:06:45;4.47;;;1.75;;
67768;SDS011;54569;52.018;5.584;2022-10-16T10:09:20;3.70;;;1.80;;
67768;SDS011;54569;52.018;5.584;2022-10-16T10:14:16;7.00;;;2.30;;
67768;SDS011;54569;52.018;5.584;2022-10-16T10:16:47;6.55;;;1.92;;
67768;SDS011;54569;52.018;5.584;2022-10-16T10:19:18;6.55;;;1.70;;
67768;SDS011;54569;52.018;5.584;2022-10-16T10:21:47;5.60;;;1.80;;
67768;SDS011;54569;52.018;5.584;2022-10-16T10:24:14;6.97;;;1.92;;
67768;SDS011;54569;52.018;5.584;2022-10-16T10:26:43;7.00;;;1.95;;
67768;SDS011;54569;52.018;5.584;2022-10-16T10:29:28;7.57;;;1.90;;
67768;SDS011;54569;52.018;5.584;2022-10-16T10:32:21;6.85;;;1.98;;
67768;SDS011;54569;52.018;5.584;2022-10-16T10:40:22;8.77;;;2.30;;
67768;SDS011;54569;52.018;5.584;2022-10-16T10:46:03;5.53;;;1.88;;
67768;SDS011;54569;52.018;5.584;2022-10-16T10:51:28;8.57;;;2.10;;
67768;SDS011;54569;52.018;5.584;2022-10-16T10:56:45;6.80;;;2.13;;
67768;SDS011;54569;52.018;5.584;2022-10-16T10:59:30;7.25;;;2.00;;
67768;SDS011;54569;52.018;5.584;2022-10-16T11:02:04;5.45;;;1.65;;
67768;SDS011;54569;52.018;5.584;2022-10-16T11:07:23;5.80;;;1.83;;
67768;SDS011;54569;52.018;5.584;2022-10-16T11:09:54;9.23;;;2.03;;
67768;SDS011;54569;52.018;5.584;2022-10-16T11:12:39;5.45;;;1.95;;
67768;SDS011;54569;52.018;5.584;2022-10-16T11:15:14;6.00;;;1.73;;
67768;SDS011;54569;52.018;5.584;2022-10-16T11:17:44;5.30;;;1.85;;
67768;SDS011;54569;52.018;5.584;2022-10-16T11:20:25;6.22;;;1.80;;
67768;SDS011;54569;52.018;5.584;2022-10-16T11:22:58;6.70;;;1.88;;
67768;SDS011;54569;52.018;5.584;2022-10-16T11:25:45;5.25;;;1.80;;
67768;SDS011;54569;52.018;5.584;2022-10-16T11:33:28;4.60;;;1.33;;
67768;SDS011;54569;52.018;5.584;2022-10-16T11:47:02;6.75;;;2.08;;
67768;SDS011;54569;52.018;5.584;2022-10-16T11:49:50;7.15;;;1.85;;
67768;SDS011;54569;52.018;5.584;2022-10-16T11:52:22;8.85;;;1.73;;
67768;SDS011;54569;52.018;5.584;2022-10-16T11:55:01;6.15;;;1.80;;
67768;SDS011;54569;52.018;5.584;2022-10-16T11:57:48;8.82;;;1.70;;
67768;SDS011;54569;52.018;5.584;2022-10-16T12:00:24;9.43;;;1.85;;
67768;SDS011;54569;52.018;5.584;2022-10-16T12:08:51;4.43;;;1.85;;
67768;SDS011;54569;52.018;5.584;2022-10-16T12:16:56;5.20;;;1.48;;
67768;SDS011;54569;52.018;5.584;2022-10-16T12:19:25;5.45;;;1.65;;
67768;SDS011;54569;52.018;5.584;2022-10-16T12:21:54;6.00;;;1.52;;
67768;SDS011;54569;52.018;5.584;2022-10-16T12:24:32;5.63;;;2.17;;
67768;SDS011;54569;52.018;5.584;2022-10-16T12:27:21;9.70;;;1.77;;
67768;SDS011;54569;52.018;5.584;2022-10-16T12:30:05;6.78;;;1.65;;
67768;SDS011;54569;52.018;5.584;2022-10-16T12:32:36;4.38;;;1.27;;
67768;SDS011;54569;52.018;5.584;2022-10-16T12:37:42;4.38;;;1.77;;
67768;SDS011;54569;52.018;5.584;2022-10-16T12:42:52;4.55;;;1.75;;
67768;SDS011;54569;52.018;5.584;2022-10-16T12:45:28;9.43;;;1.50;;
67768;SDS011;54569;52.018;5.584;2022-10-16T12:47:56;5.68;;;1.65;;
67768;SDS011;54569;52.018;5.584;2022-10-16T12:50:24;6.75;;;2.00;;
67768;SDS011;54569;52.018;5.584;2022-10-16T12:52:53;6.50;;;1.42;;
67768;SDS011;54569;52.018;5.584;2022-10-16T12:55:19;6.10;;;2.00;;
67768;SDS011;54569;52.018;5.584;2022-10-16T13:03:20;6.97;;;1.75;;
67768;SDS011;54569;52.018;5.584;2022-10-16T13:11:55;7.55;;;1.90;;
67768;SDS011;54569;52.018;5.584;2022-10-16T13:14:28;5.85;;;1.70;;
67768;SDS011;54569;52.018;5.584;2022-10-16T13:17:46;5.85;;;1.30;;
67768;SDS011;54569;52.018;5.584;2022-10-16T13:24:06;6.82;;;1.65;;
67768;SDS011;54569;52.018;5.584;2022-10-16T13:26:53;5.35;;;1.60;;
67768;SDS011;54569;52.018;5.584;2022-10-16T13:29:21;8.07;;;1.90;;
67768;SDS011;54569;52.018;5.584;2022-10-16T13:31:47;6.65;;;1.60;;
67768;SDS011;54569;52.018;5.584;2022-10-16T13:34:15;10.25;;;2.05;;
67768;SDS011;54569;52.018;5.584;2022-10-16T13:36:47;9.52;;;2.05;;
67768;SDS011;54569;52.018;5.584;2022-10-16T13:39:22;10.15;;;2.10;;
67768;SDS011;54569;52.018;5.584;2022-10-16T13:44:36;7.53;;;1.80;;
67768;SDS011;54569;52.018;5.584;2022-10-16T13:47:10;11.00;;;1.80;;
67768;SDS011;54569;52.018;5.584;2022-10-16T13:49:44;8.65;;;1.80;;
67768;SDS011;54569;52.018;5.584;2022-10-16T13:52:20;9.10;;;1.88;;
67768;SDS011;54569;52.018;5.584;2022-10-16T13:54:47;6.88;;;1.98;;
67768;SDS011;54569;52.018;5.584;2022-10-16T13:57:16;5.90;;;2.00;;
67768;SDS011;54569;52.018;5.584;2022-10-16T13:59:42;6.93;;;1.58;;
67768;SDS011;54569;52.018;5.584;2022-10-16T14:02:15;8.23;;;2.00;;
67768;SDS011;54569;52.018;5.584;2022-10-16T14:05:00;7.80;;;1.63;;
67768;SDS011;54569;52.018;5.584;2022-10-16T14:07:28;9.40;;;1.88;;
67768;SDS011;54569;52.018;5.584;2022-10-16T14:09:56;8.35;;;1.85;;
67768;SDS011;54569;52.018;5.584;2022-10-16T14:12:27;6.88;;;1.70;;
67768;SDS011;54569;52.018;5.584;2022-10-16T14:14:53;5.53;;;1.23;;
67768;SDS011;54569;52.018;5.584;2022-10-16T14:19:59;9.02;;;1.77;;
67768;SDS011;54569;52.018;5.584;2022-10-16T14:22:38;10.13;;;1.77;;
67768;SDS011;54569;52.018;5.584;2022-10-16T14:28:01;6.60;;;1.60;;
67768;SDS011;54569;52.018;5.584;2022-10-16T14:31:00;8.10;;;1.60;;
67768;SDS011;54569;52.018;5.584;2022-10-16T14:36:14;6.40;;;1.65;;
67768;SDS011;54569;52.018;5.584;2022-10-16T14:38:49;9.13;;;1.92;;
67768;SDS011;54569;52.018;5.584;2022-10-16T14:41:20;8.05;;;1.92;;
67768;SDS011;54569;52.018;5.584;2022-10-16T14:43:50;8.20;;;1.80;;
67768;SDS011;54569;52.018;5.584;2022-10-16T14:46:19;10.55;;;2.10;;
67768;SDS011;54569;52.018;5.584;2022-10-16T14:48:50;7.18;;;1.60;;
67768;SDS011;54569;52.018;5.584;2022-10-16T14:51:25;7.50;;;1.45;;
67768;SDS011;54569;52.018;5.584;2022-10-16T14:53:51;10.43;;;1.63;;
67768;SDS011;54569;52.018;5.584;2022-10-16T14:56:24;8.38;;;2.15;;
67768;SDS011;54569;52.018;5.584;2022-10-16T14:58:53;7.57;;;1.65;;
67768;SDS011;54569;52.018;5.584;2022-10-16T15:01:20;8.93;;;1.63;;
67768;SDS011;54569;52.018;5.584;2022-10-16T15:03:46;7.03;;;1.50;;
67768;SDS011;54569;52.018;5.584;2022-10-16T15:06:12;10.73;;;2.10;;
67768;SDS011;54569;52.018;5.584;2022-10-16T15:08:40;7.07;;;1.83;;
67768;SDS011;54569;52.018;5.584;2022-10-16T15:11:12;10.98;;;2.10;;
67768;SDS011;54569;52.018;5.584;2022-10-16T15:13:40;7.38;;;1.75;;
67768;SDS011;54569;52.018;5.584;2022-10-16T15:16:15;9.07;;;2.53;;
67768;SDS011;54569;52.018;5.584;2022-10-16T15:18:41;6.28;;;2.05;;
67768;SDS011;54569;52.018;5.584;2022-10-16T15:21:07;8.25;;;1.90;;
67768;SDS011;54569;52.018;5.584;2022-10-16T15:23:34;6.35;;;2.25;;
67768;SDS011;54569;52.018;5.584;2022-10-16T15:25:59;7.25;;;1.60;;
67768;SDS011;54569;52.018;5.584;2022-10-16T15:28:25;15.65;;;4.70;;
67768;SDS011;54569;52.018;5.584;2022-10-16T15:30:52;8.88;;;2.50;;
67768;SDS011;54569;52.018;5.584;2022-10-16T15:33:28;11.48;;;2.55;;
67768;SDS011;54569;52.018;5.584;2022-10-16T15:35:57;5.80;;;2.00;;
67768;SDS011;54569;52.018;5.584;2022-10-16T15:38:24;8.45;;;2.50;;
67768;SDS011;54569;52.018;5.584;2022-10-16T15:40:51;5.60;;;1.98;;
67768;SDS011;54569;52.018;5.584;2022-10-16T15:43:16;7.95;;;2.00;;
67768;SDS011;54569;52.018;5.584;2022-10-16T15:45:43;5.38;;;1.92;;
67768;SDS011;54569;52.018;5.584;2022-10-16T15:48:17;9.43;;;2.40;;
67768;SDS011;54569;52.018;5.584;2022-10-16T15:50:42;9.35;;;2.50;;
67768;SDS011;54569;52.018;5.584;2022-10-16T15:53:08;6.93;;;2.60;;
67768;SDS011;54569;52.018;5.584;2022-10-16T15:55:34;12.98;;;2.72;;
67768;SDS011;54569;52.018;5.584;2022-10-16T15:58:02;9.20;;;2.00;;
67768;SDS011;54569;52.018;5.584;2022-10-16T16:00:29;5.05;;;1.77;;
67768;SDS011;54569;52.018;5.584;2022-10-16T16:02:55;7.07;;;1.85;;
67768;SDS011;54569;52.018;5.584;2022-10-16T16:05:21;7.50;;;2.45;;
67768;SDS011;54569;52.018;5.584;2022-10-16T16:07:47;11.20;;;2.80;;
67768;SDS011;54569;52.018;5.584;2022-10-16T16:10:13;14.30;;;3.20;;
67768;SDS011;54569;52.018;5.584;2022-10-16T16:12:43;9.95;;;2.80;;
67768;SDS011;54569;52.018;5.584;2022-10-16T16:15:14;9.32;;;2.38;;
67768;SDS011;54569;52.018;5.584;2022-10-16T16:17:40;8.23;;;1.95;;
67768;SDS011;54569;52.018;5.584;2022-10-16T16:20:06;7.75;;;1.77;;
67768;SDS011;54569;52.018;5.584;2022-10-16T16:22:32;6.18;;;2.05;;
67768;SDS011;54569;52.018;5.584;2022-10-16T16:24:58;10.98;;;2.53;;
67768;SDS011;54569;52.018;5.584;2022-10-16T16:27:24;6.57;;;1.95;;
67768;SDS011;54569;52.018;5.584;2022-10-16T16:29:49;9.70;;;2.28;;
67768;SDS011;54569;52.018;5.584;2022-10-16T16:32:15;8.40;;;2.00;;
67768;SDS011;54569;52.018;5.584;2022-10-16T16:34:41;11.35;;;2.63;;
67768;SDS011;54569;52.018;5.584;2022-10-16T16:37:07;7.45;;;2.03;;
67768;SDS011;54569;52.018;5.584;2022-10-16T16:39:33;10.57;;;2.90;;
67768;SDS011;54569;52.018;5.584;2022-10-16T16:41:58;12.55;;;2.70;;
67768;SDS011;54569;52.018;5.584;2022-10-16T16:44:24;7.78;;;1.80;;
67768;SDS011;54569;52.018;5.584;2022-10-16T16:46:50;8.98;;;2.15;;
67768;SDS011;54569;52.018;5.584;2022-10-16T16:49:17;7.20;;;2.60;;
67768;SDS011;54569;52.018;5.584;2022-10-16T16:51:43;9.02;;;2.58;;
67768;SDS011;54569;52.018;5.584;2022-10-16T16:54:10;6.20;;;2.35;;
67768;SDS011;54569;52.018;5.584;2022-10-16T16:56:37;3.50;;;2.25;;
67768;SDS011;54569;52.018;5.584;2022-10-16T16:59:04;14.35;;;2.75;;
67768;SDS011;54569;52.018;5.584;2022-10-16T17:01:30;5.18;;;1.83;;
67768;SDS011;54569;52.018;5.584;2022-10-16T17:04:02;6.75;;;2.40;;
67768;SDS011;54569;52.018;5.584;2022-10-16T17:06:28;8.30;;;2.33;;
67768;SDS011;54569;52.018;5.584;2022-10-16T17:08:54;8.00;;;2.38;;
67768;SDS011;54569;52.018;5.584;2022-10-16T17:11:21;9.63;;;3.00;;